sensor_id;sensor_type;location;lat;lon;timestamp;P1;durP1;ratioP1;P2;durP2;ratioP2
16673;SDS011;8450;52.654;10.326;2024-02-26T00:00:39;3.80;;;3.27;;
16673;SDS011;8450;52.654;10.326;2024-02-26T00:03:05;5.90;;;3.53;;
16673;SDS011;8450;52.654;10.326;2024-02-26T00:05:31;5.43;;;3.50;;
16673;SDS011;8450;52.654;10.326;2024-02-26T00:07:56;6.13;;;3.57;;
16673;SDS011;8450;52.654;10.326;2024-02-26T00:10:22;4.60;;;3.27;;
16673;SDS011;8450;52.654;10.326;2024-02-26T00:12:47;4.03;;;3.57;;
16673;SDS011;8450;52.654;10.326;2024-02-26T00:15:13;3.90;;;3.50;;
16673;SDS011;8450;52.654;10.326;2024-02-26T00:17:39;5.63;;;3.23;;
16673;SDS011;8450;52.654;10.326;2024-02-26T00:20:05;3.30;;;2.80;;
16673;SDS011;8450;52.654;10.326;2024-02-26T00:22:33;3.80;;;3.40;;
16673;SDS011;8450;52.654;10.326;2024-02-26T00:24:59;3.90;;;2.90;;
16673;SDS011;8450;52.654;10.326;2024-02-26T00:27:25;4.07;;;3.23;;
16673;SDS011;8450;52.654;10.326;2024-02-26T00:29:50;3.60;;;3.30;;
16673;SDS011;8450;52.654;10.326;2024-02-26T00:32:16;4.97;;;2.77;;
16673;SDS011;8450;52.654;10.326;2024-02-26T00:34:41;3.57;;;3.20;;
16673;SDS011;8450;52.654;10.326;2024-02-26T00:37:07;3.10;;;2.80;;
16673;SDS011;8450;52.654;10.326;2024-02-26T00:39:32;3.33;;;3.03;;
16673;SDS011;8450;52.654;10.326;2024-02-26T00:41:58;3.30;;;3.00;;
16673;SDS011;8450;52.654;10.326;2024-02-26T00:44:24;4.13;;;3.37;;
16673;SDS011;8450;52.654;10.326;2024-02-26T00:46:49;3.87;;;3.20;;
16673;SDS011;8450;52.654;10.326;2024-02-26T00:49:15;5.07;;;2.83;;
16673;SDS011;8450;52.654;10.326;2024-02-26T00:51:40;3.27;;;2.90;;
16673;SDS011;8450;52.654;10.326;2024-02-26T00:54:06;4.10;;;3.10;;
16673;SDS011;8450;52.654;10.326;2024-02-26T00:56:31;3.43;;;3.10;;
16673;SDS011;8450;52.654;10.326;2024-02-26T00:58:57;4.07;;;3.33;;
16673;SDS011;8450;52.654;10.326;2024-02-26T01:01:23;3.30;;;2.80;;
16673;SDS011;8450;52.654;10.326;2024-02-26T01:03:49;4.77;;;3.40;;
16673;SDS011;8450;52.654;10.326;2024-02-26T01:06:14;3.80;;;3.03;;
16673;SDS011;8450;52.654;10.326;2024-02-26T01:08:40;3.50;;;3.10;;
16673;SDS011;8450;52.654;10.326;2024-02-26T01:11:05;5.67;;;3.13;;
16673;SDS011;8450;52.654;10.326;2024-02-26T01:13:31;3.37;;;3.07;;
16673;SDS011;8450;52.654;10.326;2024-02-26T01:15:56;4.53;;;3.57;;
16673;SDS011;8450;52.654;10.326;2024-02-26T01:18:22;3.93;;;3.40;;
16673;SDS011;8450;52.654;10.326;2024-02-26T01:20:48;4.13;;;3.73;;
16673;SDS011;8450;52.654;10.326;2024-02-26T01:23:13;4.43;;;3.33;;
16673;SDS011;8450;52.654;10.326;2024-02-26T01:25:39;4.23;;;3.70;;
16673;SDS011;8450;52.654;10.326;2024-02-26T01:28:05;5.03;;;3.63;;
16673;SDS011;8450;52.654;10.326;2024-02-26T01:30:31;3.83;;;3.43;;
16673;SDS011;8450;52.654;10.326;2024-02-26T01:32:56;6.83;;;3.70;;
16673;SDS011;8450;52.654;10.326;2024-02-26T01:35:22;6.30;;;3.90;;
16673;SDS011;8450;52.654;10.326;2024-02-26T01:37:48;6.07;;;4.10;;
16673;SDS011;8450;52.654;10.326;2024-02-26T01:40:13;4.40;;;3.57;;
16673;SDS011;8450;52.654;10.326;2024-02-26T01:42:44;4.93;;;3.47;;
16673;SDS011;8450;52.654;10.326;2024-02-26T01:45:12;3.93;;;3.20;;
16673;SDS011;8450;52.654;10.326;2024-02-26T01:47:50;5.40;;;3.87;;
16673;SDS011;8450;52.654;10.326;2024-02-26T01:50:17;4.10;;;3.73;;
16673;SDS011;8450;52.654;10.326;2024-02-26T01:52:43;4.17;;;3.43;;
16673;SDS011;8450;52.654;10.326;2024-02-26T01:55:14;3.90;;;3.57;;
16673;SDS011;8450;52.654;10.326;2024-02-26T01:57:44;3.93;;;3.40;;
16673;SDS011;8450;52.654;10.326;2024-02-26T02:00:11;4.30;;;3.50;;
16673;SDS011;8450;52.654;10.326;2024-02-26T02:02:38;4.80;;;3.73;;
16673;SDS011;8450;52.654;10.326;2024-02-26T02:05:05;4.07;;;3.67;;
16673;SDS011;8450;52.654;10.326;2024-02-26T02:07:31;3.93;;;3.53;;
16673;SDS011;8450;52.654;10.326;2024-02-26T02:09:57;3.90;;;3.33;;
16673;SDS011;8450;52.654;10.326;2024-02-26T02:12:23;4.67;;;3.20;;
16673;SDS011;8450;52.654;10.326;2024-02-26T02:14:49;3.47;;;3.17;;
16673;SDS011;8450;52.654;10.326;2024-02-26T02:17:15;4.67;;;3.47;;
16673;SDS011;8450;52.654;10.326;2024-02-26T02:19:40;3.83;;;2.80;;
16673;SDS011;8450;52.654;10.326;2024-02-26T02:22:06;3.00;;;2.70;;
16673;SDS011;8450;52.654;10.326;2024-02-26T02:24:31;5.90;;;2.80;;
16673;SDS011;8450;52.654;10.326;2024-02-26T02:26:57;3.47;;;2.90;;
16673;SDS011;8450;52.654;10.326;2024-02-26T02:29:22;3.70;;;3.27;;
16673;SDS011;8450;52.654;10.326;2024-02-26T02:31:48;4.37;;;2.90;;
16673;SDS011;8450;52.654;10.326;2024-02-26T02:34:14;2.87;;;2.67;;
16673;SDS011;8450;52.654;10.326;2024-02-26T02:36:51;2.77;;;2.47;;
16673;SDS011;8450;52.654;10.326;2024-02-26T02:39:17;2.87;;;2.30;;
16673;SDS011;8450;52.654;10.326;2024-02-26T02:41:43;3.13;;;2.70;;
16673;SDS011;8450;52.654;10.326;2024-02-26T02:44:08;3.57;;;2.80;;
16673;SDS011;8450;52.654;10.326;2024-02-26T02:46:34;3.40;;;2.77;;
16673;SDS011;8450;52.654;10.326;2024-02-26T02:49:00;3.37;;;2.60;;
16673;SDS011;8450;52.654;10.326;2024-02-26T02:51:26;2.97;;;2.63;;
16673;SDS011;8450;52.654;10.326;2024-02-26T02:53:51;2.63;;;2.37;;
16673;SDS011;8450;52.654;10.326;2024-02-26T02:56:17;4.10;;;2.73;;
16673;SDS011;8450;52.654;10.326;2024-02-26T02:58:43;3.17;;;2.70;;
16673;SDS011;8450;52.654;10.326;2024-02-26T03:01:08;3.07;;;2.30;;
16673;SDS011;8450;52.654;10.326;2024-02-26T03:03:34;3.37;;;2.77;;
16673;SDS011;8450;52.654;10.326;2024-02-26T03:06:00;3.40;;;2.70;;
16673;SDS011;8450;52.654;10.326;2024-02-26T03:08:26;3.60;;;2.70;;
16673;SDS011;8450;52.654;10.326;2024-02-26T03:10:51;2.50;;;2.30;;
16673;SDS011;8450;52.654;10.326;2024-02-26T03:13:17;2.93;;;2.53;;
16673;SDS011;8450;52.654;10.326;2024-02-26T03:15:42;3.10;;;2.70;;
16673;SDS011;8450;52.654;10.326;2024-02-26T03:18:08;3.93;;;2.63;;
16673;SDS011;8450;52.654;10.326;2024-02-26T03:20:34;3.20;;;2.90;;
16673;SDS011;8450;52.654;10.326;2024-02-26T03:22:59;3.30;;;2.97;;
16673;SDS011;8450;52.654;10.326;2024-02-26T03:25:25;2.80;;;2.60;;
16673;SDS011;8450;52.654;10.326;2024-02-26T03:27:50;3.67;;;2.80;;
16673;SDS011;8450;52.654;10.326;2024-02-26T03:30:16;3.63;;;2.63;;
16673;SDS011;8450;52.654;10.326;2024-02-26T03:32:41;3.03;;;2.70;;
16673;SDS011;8450;52.654;10.326;2024-02-26T03:35:07;3.20;;;2.77;;
16673;SDS011;8450;52.654;10.326;2024-02-26T03:37:33;3.27;;;2.67;;
16673;SDS011;8450;52.654;10.326;2024-02-26T03:39:59;3.40;;;2.70;;
16673;SDS011;8450;52.654;10.326;2024-02-26T03:42:26;3.40;;;2.80;;
16673;SDS011;8450;52.654;10.326;2024-02-26T03:44:51;3.73;;;3.00;;
16673;SDS011;8450;52.654;10.326;2024-02-26T03:47:17;2.97;;;2.67;;
16673;SDS011;8450;52.654;10.326;2024-02-26T03:49:42;2.97;;;2.60;;
16673;SDS011;8450;52.654;10.326;2024-02-26T03:52:08;4.07;;;2.80;;
16673;SDS011;8450;52.654;10.326;2024-02-26T03:54:34;3.70;;;2.90;;
16673;SDS011;8450;52.654;10.326;2024-02-26T03:56:59;5.83;;;2.60;;
16673;SDS011;8450;52.654;10.326;2024-02-26T03:59:25;3.60;;;2.60;;
16673;SDS011;8450;52.654;10.326;2024-02-26T04:01:51;4.03;;;2.90;;
16673;SDS011;8450;52.654;10.326;2024-02-26T04:04:17;3.23;;;2.60;;
16673;SDS011;8450;52.654;10.326;2024-02-26T04:06:44;3.93;;;2.90;;
16673;SDS011;8450;52.654;10.326;2024-02-26T04:09:15;3.20;;;2.73;;
16673;SDS011;8450;52.654;10.326;2024-02-26T04:11:41;4.70;;;3.27;;
16673;SDS011;8450;52.654;10.326;2024-02-26T04:14:08;4.03;;;3.00;;
16673;SDS011;8450;52.654;10.326;2024-02-26T04:16:36;3.60;;;2.90;;
16673;SDS011;8450;52.654;10.326;2024-02-26T04:19:01;3.20;;;2.80;;
16673;SDS011;8450;52.654;10.326;2024-02-26T04:21:27;3.80;;;3.10;;
16673;SDS011;8450;52.654;10.326;2024-02-26T04:23:53;2.83;;;2.63;;
16673;SDS011;8450;52.654;10.326;2024-02-26T04:26:21;4.23;;;3.40;;
16673;SDS011;8450;52.654;10.326;2024-02-26T04:28:47;2.43;;;2.23;;
16673;SDS011;8450;52.654;10.326;2024-02-26T04:31:12;2.80;;;2.50;;
16673;SDS011;8450;52.654;10.326;2024-02-26T04:33:38;4.83;;;3.30;;
16673;SDS011;8450;52.654;10.326;2024-02-26T04:36:04;5.43;;;3.30;;
16673;SDS011;8450;52.654;10.326;2024-02-26T04:38:29;4.03;;;3.57;;
16673;SDS011;8450;52.654;10.326;2024-02-26T04:40:55;4.90;;;3.77;;
16673;SDS011;8450;52.654;10.326;2024-02-26T04:43:20;4.80;;;3.80;;
16673;SDS011;8450;52.654;10.326;2024-02-26T04:45:46;6.63;;;4.23;;
16673;SDS011;8450;52.654;10.326;2024-02-26T04:48:11;4.23;;;3.73;;
16673;SDS011;8450;52.654;10.326;2024-02-26T04:50:37;4.37;;;3.50;;
16673;SDS011;8450;52.654;10.326;2024-02-26T04:53:03;3.90;;;3.60;;
16673;SDS011;8450;52.654;10.326;2024-02-26T04:55:28;4.07;;;3.47;;
16673;SDS011;8450;52.654;10.326;2024-02-26T04:57:54;4.83;;;3.87;;
16673;SDS011;8450;52.654;10.326;2024-02-26T05:00:19;4.33;;;3.97;;
16673;SDS011;8450;52.654;10.326;2024-02-26T05:02:45;5.40;;;4.70;;
16673;SDS011;8450;52.654;10.326;2024-02-26T05:05:11;5.10;;;4.20;;
16673;SDS011;8450;52.654;10.326;2024-02-26T05:07:40;5.50;;;4.50;;
16673;SDS011;8450;52.654;10.326;2024-02-26T05:10:10;6.67;;;4.73;;
16673;SDS011;8450;52.654;10.326;2024-02-26T05:12:36;5.60;;;4.33;;
16673;SDS011;8450;52.654;10.326;2024-02-26T05:15:02;7.57;;;5.60;;
16673;SDS011;8450;52.654;10.326;2024-02-26T05:17:28;4.90;;;4.03;;
16673;SDS011;8450;52.654;10.326;2024-02-26T05:19:53;6.67;;;4.80;;
16673;SDS011;8450;52.654;10.326;2024-02-26T05:22:19;5.90;;;5.07;;
16673;SDS011;8450;52.654;10.326;2024-02-26T05:24:45;6.03;;;4.83;;
16673;SDS011;8450;52.654;10.326;2024-02-26T05:27:10;5.10;;;4.60;;
16673;SDS011;8450;52.654;10.326;2024-02-26T05:29:37;5.57;;;5.00;;
16673;SDS011;8450;52.654;10.326;2024-02-26T05:32:03;4.97;;;4.30;;
16673;SDS011;8450;52.654;10.326;2024-02-26T05:34:29;6.80;;;5.03;;
16673;SDS011;8450;52.654;10.326;2024-02-26T05:36:55;5.13;;;4.63;;
16673;SDS011;8450;52.654;10.326;2024-02-26T05:39:21;5.57;;;4.20;;
16673;SDS011;8450;52.654;10.326;2024-02-26T05:41:46;5.27;;;4.50;;
16673;SDS011;8450;52.654;10.326;2024-02-26T05:44:12;7.20;;;5.27;;
16673;SDS011;8450;52.654;10.326;2024-02-26T05:46:37;4.97;;;4.27;;
16673;SDS011;8450;52.654;10.326;2024-02-26T05:49:03;8.20;;;5.03;;
16673;SDS011;8450;52.654;10.326;2024-02-26T05:51:28;5.20;;;4.40;;
16673;SDS011;8450;52.654;10.326;2024-02-26T05:53:54;5.23;;;4.50;;
16673;SDS011;8450;52.654;10.326;2024-02-26T05:56:22;5.50;;;4.60;;
16673;SDS011;8450;52.654;10.326;2024-02-26T05:58:48;7.13;;;4.43;;
16673;SDS011;8450;52.654;10.326;2024-02-26T06:01:15;4.73;;;4.23;;
16673;SDS011;8450;52.654;10.326;2024-02-26T06:03:42;7.13;;;4.87;;
16673;SDS011;8450;52.654;10.326;2024-02-26T06:06:07;4.63;;;3.87;;
16673;SDS011;8450;52.654;10.326;2024-02-26T06:08:33;4.33;;;3.87;;
16673;SDS011;8450;52.654;10.326;2024-02-26T06:10:58;4.10;;;3.47;;
16673;SDS011;8450;52.654;10.326;2024-02-26T06:13:24;5.13;;;3.93;;
16673;SDS011;8450;52.654;10.326;2024-02-26T06:15:50;5.07;;;3.80;;
16673;SDS011;8450;52.654;10.326;2024-02-26T06:18:15;5.37;;;3.97;;
16673;SDS011;8450;52.654;10.326;2024-02-26T06:20:41;4.97;;;3.77;;
16673;SDS011;8450;52.654;10.326;2024-02-26T06:23:07;5.30;;;3.57;;
16673;SDS011;8450;52.654;10.326;2024-02-26T06:25:32;4.10;;;3.57;;
16673;SDS011;8450;52.654;10.326;2024-02-26T06:27:58;5.27;;;4.30;;
16673;SDS011;8450;52.654;10.326;2024-02-26T06:30:23;4.70;;;3.67;;
16673;SDS011;8450;52.654;10.326;2024-02-26T06:32:49;5.43;;;3.97;;
16673;SDS011;8450;52.654;10.326;2024-02-26T06:35:14;4.17;;;3.43;;
16673;SDS011;8450;52.654;10.326;2024-02-26T06:37:40;5.50;;;3.43;;
16673;SDS011;8450;52.654;10.326;2024-02-26T06:40:05;5.00;;;4.00;;
16673;SDS011;8450;52.654;10.326;2024-02-26T06:42:32;5.67;;;3.43;;
16673;SDS011;8450;52.654;10.326;2024-02-26T06:44:58;6.07;;;3.23;;
16673;SDS011;8450;52.654;10.326;2024-02-26T06:47:23;5.20;;;4.00;;
16673;SDS011;8450;52.654;10.326;2024-02-26T06:49:49;6.17;;;4.60;;
16673;SDS011;8450;52.654;10.326;2024-02-26T06:52:14;4.50;;;3.40;;
16673;SDS011;8450;52.654;10.326;2024-02-26T06:54:40;5.00;;;3.93;;
16673;SDS011;8450;52.654;10.326;2024-02-26T06:57:06;7.07;;;4.50;;
16673;SDS011;8450;52.654;10.326;2024-02-26T06:59:32;4.63;;;4.17;;
16673;SDS011;8450;52.654;10.326;2024-02-26T07:01:57;6.80;;;4.37;;
16673;SDS011;8450;52.654;10.326;2024-02-26T07:04:23;6.90;;;4.43;;
16673;SDS011;8450;52.654;10.326;2024-02-26T07:06:48;6.90;;;4.23;;
16673;SDS011;8450;52.654;10.326;2024-02-26T07:09:14;5.20;;;4.30;;
16673;SDS011;8450;52.654;10.326;2024-02-26T07:11:40;5.47;;;4.50;;
16673;SDS011;8450;52.654;10.326;2024-02-26T07:14:08;5.20;;;3.97;;
16673;SDS011;8450;52.654;10.326;2024-02-26T07:16:34;6.43;;;4.47;;
16673;SDS011;8450;52.654;10.326;2024-02-26T07:19:00;5.50;;;4.50;;
16673;SDS011;8450;52.654;10.326;2024-02-26T07:21:26;5.83;;;3.67;;
16673;SDS011;8450;52.654;10.326;2024-02-26T07:23:51;5.97;;;4.40;;
16673;SDS011;8450;52.654;10.326;2024-02-26T07:26:17;4.83;;;4.13;;
16673;SDS011;8450;52.654;10.326;2024-02-26T07:28:44;5.57;;;4.40;;
16673;SDS011;8450;52.654;10.326;2024-02-26T07:31:10;7.43;;;4.37;;
16673;SDS011;8450;52.654;10.326;2024-02-26T07:33:35;4.93;;;3.93;;
16673;SDS011;8450;52.654;10.326;2024-02-26T07:36:01;4.23;;;3.80;;
16673;SDS011;8450;52.654;10.326;2024-02-26T07:38:27;4.93;;;4.43;;
16673;SDS011;8450;52.654;10.326;2024-02-26T07:40:52;7.80;;;4.23;;
16673;SDS011;8450;52.654;10.326;2024-02-26T07:43:18;5.37;;;4.00;;
16673;SDS011;8450;52.654;10.326;2024-02-26T07:45:43;4.03;;;3.50;;
16673;SDS011;8450;52.654;10.326;2024-02-26T07:48:09;4.93;;;4.23;;
16673;SDS011;8450;52.654;10.326;2024-02-26T07:50:34;5.87;;;3.83;;
16673;SDS011;8450;52.654;10.326;2024-02-26T07:53:00;5.30;;;4.23;;
16673;SDS011;8450;52.654;10.326;2024-02-26T07:55:26;5.80;;;4.23;;
16673;SDS011;8450;52.654;10.326;2024-02-26T07:57:51;4.43;;;3.90;;
16673;SDS011;8450;52.654;10.326;2024-02-26T08:00:17;5.37;;;3.80;;
16673;SDS011;8450;52.654;10.326;2024-02-26T08:02:43;5.60;;;3.87;;
16673;SDS011;8450;52.654;10.326;2024-02-26T08:05:09;4.60;;;4.17;;
16673;SDS011;8450;52.654;10.326;2024-02-26T08:07:35;6.47;;;4.13;;
16673;SDS011;8450;52.654;10.326;2024-02-26T08:10:00;5.33;;;4.03;;
16673;SDS011;8450;52.654;10.326;2024-02-26T08:12:26;4.97;;;4.13;;
16673;SDS011;8450;52.654;10.326;2024-02-26T08:14:51;4.37;;;3.97;;
16673;SDS011;8450;52.654;10.326;2024-02-26T08:17:17;5.10;;;4.00;;
16673;SDS011;8450;52.654;10.326;2024-02-26T08:19:42;4.53;;;3.77;;
16673;SDS011;8450;52.654;10.326;2024-02-26T08:22:08;8.43;;;3.87;;
16673;SDS011;8450;52.654;10.326;2024-02-26T08:24:35;5.27;;;3.33;;
16673;SDS011;8450;52.654;10.326;2024-02-26T08:27:00;4.50;;;3.70;;
16673;SDS011;8450;52.654;10.326;2024-02-26T08:29:26;4.23;;;3.40;;
16673;SDS011;8450;52.654;10.326;2024-02-26T08:31:51;4.17;;;3.53;;
16673;SDS011;8450;52.654;10.326;2024-02-26T08:34:17;5.43;;;3.47;;
16673;SDS011;8450;52.654;10.326;2024-02-26T08:36:42;4.60;;;3.77;;
16673;SDS011;8450;52.654;10.326;2024-02-26T08:39:09;4.57;;;3.67;;
16673;SDS011;8450;52.654;10.326;2024-02-26T08:41:34;4.47;;;3.77;;
16673;SDS011;8450;52.654;10.326;2024-02-26T08:44:00;5.33;;;3.57;;
16673;SDS011;8450;52.654;10.326;2024-02-26T08:46:26;4.63;;;3.30;;
16673;SDS011;8450;52.654;10.326;2024-02-26T08:48:51;3.70;;;3.27;;
16673;SDS011;8450;52.654;10.326;2024-02-26T08:51:17;3.90;;;3.17;;
16673;SDS011;8450;52.654;10.326;2024-02-26T08:53:42;3.97;;;3.10;;
16673;SDS011;8450;52.654;10.326;2024-02-26T08:56:08;4.60;;;3.33;;
16673;SDS011;8450;52.654;10.326;2024-02-26T08:58:33;3.20;;;2.90;;
16673;SDS011;8450;52.654;10.326;2024-02-26T09:00:59;4.57;;;3.20;;
16673;SDS011;8450;52.654;10.326;2024-02-26T09:03:24;4.57;;;3.60;;
16673;SDS011;8450;52.654;10.326;2024-02-26T09:05:51;5.00;;;3.10;;
16673;SDS011;8450;52.654;10.326;2024-02-26T09:08:16;7.73;;;3.30;;
16673;SDS011;8450;52.654;10.326;2024-02-26T09:10:42;5.37;;;3.43;;
16673;SDS011;8450;52.654;10.326;2024-02-26T09:13:07;4.10;;;3.10;;
16673;SDS011;8450;52.654;10.326;2024-02-26T09:15:33;4.37;;;3.50;;
16673;SDS011;8450;52.654;10.326;2024-02-26T09:17:59;3.30;;;2.90;;
16673;SDS011;8450;52.654;10.326;2024-02-26T09:20:24;4.83;;;3.27;;
16673;SDS011;8450;52.654;10.326;2024-02-26T09:22:50;4.80;;;3.33;;
16673;SDS011;8450;52.654;10.326;2024-02-26T09:25:16;4.67;;;3.30;;
16673;SDS011;8450;52.654;10.326;2024-02-26T09:27:43;4.87;;;3.20;;
16673;SDS011;8450;52.654;10.326;2024-02-26T09:30:12;3.50;;;2.97;;
16673;SDS011;8450;52.654;10.326;2024-02-26T09:32:39;3.47;;;2.90;;
16673;SDS011;8450;52.654;10.326;2024-02-26T09:35:05;3.83;;;3.30;;
16673;SDS011;8450;52.654;10.326;2024-02-26T09:37:31;6.40;;;3.40;;
16673;SDS011;8450;52.654;10.326;2024-02-26T09:39:58;6.63;;;3.73;;
16673;SDS011;8450;52.654;10.326;2024-02-26T09:42:25;3.47;;;3.17;;
16673;SDS011;8450;52.654;10.326;2024-02-26T09:44:51;3.70;;;3.40;;
16673;SDS011;8450;52.654;10.326;2024-02-26T09:47:25;3.77;;;2.90;;
16673;SDS011;8450;52.654;10.326;2024-02-26T09:49:53;4.63;;;3.97;;
16673;SDS011;8450;52.654;10.326;2024-02-26T09:52:21;3.63;;;3.13;;
16673;SDS011;8450;52.654;10.326;2024-02-26T09:54:49;4.03;;;3.63;;
16673;SDS011;8450;52.654;10.326;2024-02-26T09:57:15;4.70;;;3.70;;
16673;SDS011;8450;52.654;10.326;2024-02-26T09:59:42;4.77;;;4.20;;
16673;SDS011;8450;52.654;10.326;2024-02-26T10:02:08;5.33;;;3.33;;
16673;SDS011;8450;52.654;10.326;2024-02-26T10:04:36;5.17;;;3.90;;
16673;SDS011;8450;52.654;10.326;2024-02-26T10:07:04;3.83;;;3.43;;
16673;SDS011;8450;52.654;10.326;2024-02-26T10:09:34;7.40;;;3.10;;
16673;SDS011;8450;52.654;10.326;2024-02-26T10:12:00;4.00;;;3.13;;
16673;SDS011;8450;52.654;10.326;2024-02-26T10:14:26;5.47;;;3.73;;
16673;SDS011;8450;52.654;10.326;2024-02-26T10:16:51;5.20;;;4.00;;
16673;SDS011;8450;52.654;10.326;2024-02-26T10:19:27;5.33;;;4.00;;
16673;SDS011;8450;52.654;10.326;2024-02-26T10:21:57;4.77;;;3.57;;
16673;SDS011;8450;52.654;10.326;2024-02-26T10:24:24;4.20;;;3.80;;
16673;SDS011;8450;52.654;10.326;2024-02-26T10:26:50;3.27;;;2.97;;
16673;SDS011;8450;52.654;10.326;2024-02-26T10:29:17;4.23;;;3.60;;
16673;SDS011;8450;52.654;10.326;2024-02-26T10:31:44;4.90;;;3.30;;
16673;SDS011;8450;52.654;10.326;2024-02-26T10:34:10;3.47;;;3.17;;
16673;SDS011;8450;52.654;10.326;2024-02-26T10:36:36;3.83;;;3.47;;
16673;SDS011;8450;52.654;10.326;2024-02-26T10:39:03;4.10;;;3.30;;
16673;SDS011;8450;52.654;10.326;2024-02-26T10:41:30;4.13;;;3.30;;
16673;SDS011;8450;52.654;10.326;2024-02-26T10:43:57;3.70;;;3.00;;
16673;SDS011;8450;52.654;10.326;2024-02-26T10:46:23;3.67;;;3.30;;
16673;SDS011;8450;52.654;10.326;2024-02-26T10:48:50;4.00;;;3.30;;
16673;SDS011;8450;52.654;10.326;2024-02-26T10:51:17;4.03;;;3.43;;
16673;SDS011;8450;52.654;10.326;2024-02-26T10:53:50;5.60;;;3.37;;
16673;SDS011;8450;52.654;10.326;2024-02-26T10:56:19;3.97;;;3.40;;
16673;SDS011;8450;52.654;10.326;2024-02-26T10:58:46;4.50;;;3.10;;
16673;SDS011;8450;52.654;10.326;2024-02-26T11:01:12;2.87;;;2.63;;
16673;SDS011;8450;52.654;10.326;2024-02-26T11:03:38;5.93;;;3.33;;
16673;SDS011;8450;52.654;10.326;2024-02-26T11:06:04;6.53;;;4.47;;
16673;SDS011;8450;52.654;10.326;2024-02-26T11:08:30;3.70;;;3.30;;
16673;SDS011;8450;52.654;10.326;2024-02-26T11:10:57;3.70;;;2.90;;
16673;SDS011;8450;52.654;10.326;2024-02-26T11:13:24;3.57;;;3.27;;
16673;SDS011;8450;52.654;10.326;2024-02-26T11:15:54;3.70;;;3.13;;
16673;SDS011;8450;52.654;10.326;2024-02-26T11:18:22;4.33;;;3.30;;
16673;SDS011;8450;52.654;10.326;2024-02-26T11:20:48;6.33;;;3.13;;
16673;SDS011;8450;52.654;10.326;2024-02-26T11:23:15;3.73;;;3.00;;
16673;SDS011;8450;52.654;10.326;2024-02-26T11:25:40;5.77;;;3.40;;
16673;SDS011;8450;52.654;10.326;2024-02-26T11:28:08;3.40;;;3.10;;
16673;SDS011;8450;52.654;10.326;2024-02-26T11:30:39;4.77;;;3.10;;
16673;SDS011;8450;52.654;10.326;2024-02-26T11:33:10;4.07;;;2.93;;
16673;SDS011;8450;52.654;10.326;2024-02-26T11:35:37;3.20;;;2.60;;
16673;SDS011;8450;52.654;10.326;2024-02-26T11:38:03;3.77;;;3.20;;
16673;SDS011;8450;52.654;10.326;2024-02-26T11:40:30;4.13;;;3.10;;
16673;SDS011;8450;52.654;10.326;2024-02-26T11:42:57;3.33;;;3.03;;
16673;SDS011;8450;52.654;10.326;2024-02-26T11:48:04;3.23;;;2.70;;
16673;SDS011;8450;52.654;10.326;2024-02-26T11:50:36;6.20;;;3.00;;
16673;SDS011;8450;52.654;10.326;2024-02-26T11:53:21;4.30;;;3.20;;
16673;SDS011;8450;52.654;10.326;2024-02-26T11:58:41;2.80;;;2.60;;
16673;SDS011;8450;52.654;10.326;2024-02-26T12:04:05;3.33;;;2.60;;
16673;SDS011;8450;52.654;10.326;2024-02-26T12:09:33;3.33;;;3.03;;
16673;SDS011;8450;52.654;10.326;2024-02-26T12:12:03;4.90;;;3.00;;
16673;SDS011;8450;52.654;10.326;2024-02-26T12:14:32;4.13;;;3.33;;
16673;SDS011;8450;52.654;10.326;2024-02-26T12:16:59;2.93;;;2.57;;
16673;SDS011;8450;52.654;10.326;2024-02-26T12:19:25;3.20;;;2.90;;
16673;SDS011;8450;52.654;10.326;2024-02-26T12:21:52;4.37;;;3.30;;
16673;SDS011;8450;52.654;10.326;2024-02-26T12:24:19;4.30;;;2.90;;
16673;SDS011;8450;52.654;10.326;2024-02-26T12:26:45;3.37;;;3.07;;
16673;SDS011;8450;52.654;10.326;2024-02-26T12:29:11;3.30;;;2.50;;
16673;SDS011;8450;52.654;10.326;2024-02-26T12:31:37;3.37;;;2.50;;
16673;SDS011;8450;52.654;10.326;2024-02-26T12:34:05;3.87;;;2.47;;
16673;SDS011;8450;52.654;10.326;2024-02-26T12:36:31;3.03;;;2.40;;
16673;SDS011;8450;52.654;10.326;2024-02-26T12:38:59;3.17;;;2.40;;
16673;SDS011;8450;52.654;10.326;2024-02-26T12:41:27;5.17;;;2.77;;
16673;SDS011;8450;52.654;10.326;2024-02-26T12:43:54;2.80;;;2.53;;
16673;SDS011;8450;52.654;10.326;2024-02-26T12:46:19;2.83;;;2.40;;
16673;SDS011;8450;52.654;10.326;2024-02-26T12:48:46;4.60;;;2.63;;
16673;SDS011;8450;52.654;10.326;2024-02-26T12:51:12;3.50;;;2.70;;
16673;SDS011;8450;52.654;10.326;2024-02-26T12:53:40;3.00;;;2.37;;
16673;SDS011;8450;52.654;10.326;2024-02-26T12:56:07;3.30;;;2.50;;
16673;SDS011;8450;52.654;10.326;2024-02-26T12:58:34;2.70;;;2.33;;
16673;SDS011;8450;52.654;10.326;2024-02-26T13:01:00;3.43;;;2.67;;
16673;SDS011;8450;52.654;10.326;2024-02-26T13:03:26;2.67;;;2.40;;
16673;SDS011;8450;52.654;10.326;2024-02-26T13:05:52;2.93;;;2.23;;
16673;SDS011;8450;52.654;10.326;2024-02-26T13:08:21;3.97;;;2.40;;
16673;SDS011;8450;52.654;10.326;2024-02-26T13:10:48;5.10;;;3.00;;
16673;SDS011;8450;52.654;10.326;2024-02-26T13:13:15;2.97;;;2.20;;
16673;SDS011;8450;52.654;10.326;2024-02-26T13:15:42;4.10;;;2.70;;
16673;SDS011;8450;52.654;10.326;2024-02-26T13:18:08;3.00;;;2.60;;
16673;SDS011;8450;52.654;10.326;2024-02-26T13:20:38;3.60;;;2.73;;
16673;SDS011;8450;52.654;10.326;2024-02-26T13:23:07;3.47;;;2.87;;
16673;SDS011;8450;52.654;10.326;2024-02-26T13:25:37;2.93;;;2.47;;
16673;SDS011;8450;52.654;10.326;2024-02-26T13:28:14;3.07;;;2.50;;
16673;SDS011;8450;52.654;10.326;2024-02-26T13:30:41;3.23;;;2.63;;
16673;SDS011;8450;52.654;10.326;2024-02-26T13:33:07;4.37;;;2.87;;
16673;SDS011;8450;52.654;10.326;2024-02-26T13:35:34;3.00;;;2.60;;
16673;SDS011;8450;52.654;10.326;2024-02-26T13:38:01;2.97;;;2.50;;
16673;SDS011;8450;52.654;10.326;2024-02-26T13:40:27;3.93;;;2.97;;
16673;SDS011;8450;52.654;10.326;2024-02-26T13:42:54;3.30;;;2.83;;
16673;SDS011;8450;52.654;10.326;2024-02-26T13:45:19;3.27;;;2.60;;
16673;SDS011;8450;52.654;10.326;2024-02-26T13:47:45;2.90;;;2.53;;
16673;SDS011;8450;52.654;10.326;2024-02-26T13:50:10;2.50;;;2.20;;
16673;SDS011;8450;52.654;10.326;2024-02-26T13:52:36;3.33;;;2.90;;
16673;SDS011;8450;52.654;10.326;2024-02-26T13:55:01;2.90;;;2.27;;
16673;SDS011;8450;52.654;10.326;2024-02-26T13:57:28;3.30;;;2.57;;
16673;SDS011;8450;52.654;10.326;2024-02-26T13:59:54;2.27;;;2.07;;
16673;SDS011;8450;52.654;10.326;2024-02-26T14:02:20;2.60;;;2.20;;
16673;SDS011;8450;52.654;10.326;2024-02-26T14:04:46;2.30;;;2.10;;
16673;SDS011;8450;52.654;10.326;2024-02-26T14:07:12;2.27;;;2.00;;
16673;SDS011;8450;52.654;10.326;2024-02-26T14:09:38;3.50;;;2.20;;
16673;SDS011;8450;52.654;10.326;2024-02-26T14:12:04;2.70;;;2.20;;
16673;SDS011;8450;52.654;10.326;2024-02-26T14:14:29;3.27;;;2.27;;
16673;SDS011;8450;52.654;10.326;2024-02-26T14:16:58;3.13;;;2.40;;
16673;SDS011;8450;52.654;10.326;2024-02-26T14:19:23;2.40;;;2.03;;
16673;SDS011;8450;52.654;10.326;2024-02-26T14:21:49;2.70;;;2.30;;
16673;SDS011;8450;52.654;10.326;2024-02-26T14:24:14;2.67;;;2.00;;
16673;SDS011;8450;52.654;10.326;2024-02-26T14:26:40;4.23;;;2.60;;
16673;SDS011;8450;52.654;10.326;2024-02-26T14:29:06;4.33;;;2.50;;
16673;SDS011;8450;52.654;10.326;2024-02-26T14:31:32;2.23;;;1.90;;
16673;SDS011;8450;52.654;10.326;2024-02-26T14:33:58;2.20;;;2.00;;
16673;SDS011;8450;52.654;10.326;2024-02-26T14:36:24;2.80;;;2.40;;
16673;SDS011;8450;52.654;10.326;2024-02-26T14:38:50;2.17;;;1.97;;
16673;SDS011;8450;52.654;10.326;2024-02-26T14:41:16;5.33;;;2.27;;
16673;SDS011;8450;52.654;10.326;2024-02-26T14:43:41;2.87;;;2.57;;
16673;SDS011;8450;52.654;10.326;2024-02-26T14:46:07;3.37;;;2.40;;
16673;SDS011;8450;52.654;10.326;2024-02-26T14:48:33;5.30;;;2.70;;
16673;SDS011;8450;52.654;10.326;2024-02-26T14:50:59;2.37;;;2.17;;
16673;SDS011;8450;52.654;10.326;2024-02-26T14:53:25;3.13;;;2.30;;